sensor_id;sensor_type;location;lat;lon;timestamp;P1;durP1;ratioP1;P2;durP2;ratioP2
45316;SDS011;31053;55.870;37.592;2022-08-19T00:00:45;10.32;;;4.57;;
45316;SDS011;31053;55.870;37.592;2022-08-19T00:03:49;7.90;;;4.55;;
45316;SDS011;31053;55.870;37.592;2022-08-19T00:06:54;11.77;;;4.00;;
45316;SDS011;31053;55.870;37.592;2022-08-19T00:09:58;11.40;;;4.10;;
45316;SDS011;31053;55.870;37.592;2022-08-19T00:13:03;10.77;;;6.72;;
45316;SDS011;31053;55.870;37.592;2022-08-19T00:16:08;7.47;;;4.57;;
45316;SDS011;31053;55.870;37.592;2022-08-19T00:19:14;8.55;;;4.43;;
45316;SDS011;31053;55.870;37.592;2022-08-19T00:22:19;9.55;;;4.65;;
45316;SDS011;31053;55.870;37.592;2022-08-19T00:25:26;5.95;;;3.95;;
45316;SDS011;31053;55.870;37.592;2022-08-19T00:28:31;12.00;;;4.18;;
45316;SDS011;31053;55.870;37.592;2022-08-19T00:31:36;12.98;;;4.15;;
45316;SDS011;31053;55.870;37.592;2022-08-19T00:34:41;10.98;;;3.92;;
45316;SDS011;31053;55.870;37.592;2022-08-19T00:37:46;9.68;;;5.45;;
45316;SDS011;31053;55.870;37.592;2022-08-19T00:40:52;10.65;;;6.60;;
45316;SDS011;31053;55.870;37.592;2022-08-19T00:43:57;13.00;;;6.15;;
45316;SDS011;31053;55.870;37.592;2022-08-19T00:47:08;11.73;;;5.30;;
45316;SDS011;31053;55.870;37.592;2022-08-19T00:50:15;9.90;;;5.85;;
45316;SDS011;31053;55.870;37.592;2022-08-19T00:53:22;10.85;;;5.35;;
45316;SDS011;31053;55.870;37.592;2022-08-19T00:56:28;13.00;;;5.28;;
45316;SDS011;31053;55.870;37.592;2022-08-19T00:59:35;13.38;;;5.45;;
45316;SDS011;31053;55.870;37.592;2022-08-19T01:02:41;9.23;;;5.22;;
45316;SDS011;31053;55.870;37.592;2022-08-19T01:05:46;11.02;;;5.00;;
45316;SDS011;31053;55.870;37.592;2022-08-19T01:08:53;14.30;;;6.13;;
45316;SDS011;31053;55.870;37.592;2022-08-19T01:11:58;11.13;;;4.85;;
45316;SDS011;31053;55.870;37.592;2022-08-19T01:15:05;8.10;;;4.80;;
45316;SDS011;31053;55.870;37.592;2022-08-19T01:18:12;10.15;;;4.15;;
45316;SDS011;31053;55.870;37.592;2022-08-19T01:24:43;14.32;;;5.03;;
45316;SDS011;31053;55.870;37.592;2022-08-19T01:27:48;8.65;;;4.20;;
45316;SDS011;31053;55.870;37.592;2022-08-19T01:30:54;11.25;;;5.65;;
45316;SDS011;31053;55.870;37.592;2022-08-19T01:33:59;14.02;;;4.90;;
45316;SDS011;31053;55.870;37.592;2022-08-19T01:37:06;7.30;;;4.55;;
45316;SDS011;31053;55.870;37.592;2022-08-19T01:40:14;13.20;;;5.43;;
45316;SDS011;31053;55.870;37.592;2022-08-19T01:43:19;12.48;;;5.57;;
45316;SDS011;31053;55.870;37.592;2022-08-19T01:46:24;12.07;;;4.40;;
45316;SDS011;31053;55.870;37.592;2022-08-19T01:49:29;14.15;;;4.55;;
45316;SDS011;31053;55.870;37.592;2022-08-19T01:52:37;14.20;;;5.32;;
45316;SDS011;31053;55.870;37.592;2022-08-19T01:55:43;12.68;;;4.28;;
45316;SDS011;31053;55.870;37.592;2022-08-19T01:58:52;13.63;;;5.25;;
45316;SDS011;31053;55.870;37.592;2022-08-19T02:01:58;7.97;;;3.97;;
45316;SDS011;31053;55.870;37.592;2022-08-19T02:05:03;9.80;;;4.72;;
45316;SDS011;31053;55.870;37.592;2022-08-19T02:08:07;14.07;;;5.35;;
45316;SDS011;31053;55.870;37.592;2022-08-19T02:11:23;10.90;;;4.78;;
45316;SDS011;31053;55.870;37.592;2022-08-19T02:14:37;12.50;;;4.05;;
45316;SDS011;31053;55.870;37.592;2022-08-19T02:17:42;10.93;;;5.30;;
45316;SDS011;31053;55.870;37.592;2022-08-19T02:20:46;13.55;;;5.30;;
45316;SDS011;31053;55.870;37.592;2022-08-19T02:23:51;9.32;;;4.88;;
45316;SDS011;31053;55.870;37.592;2022-08-19T02:26:55;11.90;;;4.05;;
45316;SDS011;31053;55.870;37.592;2022-08-19T02:30:01;12.20;;;5.03;;
45316;SDS011;31053;55.870;37.592;2022-08-19T02:33:07;9.52;;;4.53;;
45316;SDS011;31053;55.870;37.592;2022-08-19T02:36:12;12.13;;;3.88;;
45316;SDS011;31053;55.870;37.592;2022-08-19T02:39:17;14.47;;;4.80;;
45316;SDS011;31053;55.870;37.592;2022-08-19T02:42:22;7.88;;;3.28;;
45316;SDS011;31053;55.870;37.592;2022-08-19T02:45:26;10.23;;;4.20;;
45316;SDS011;31053;55.870;37.592;2022-08-19T02:48:30;11.43;;;4.20;;
45316;SDS011;31053;55.870;37.592;2022-08-19T02:51:37;8.05;;;4.22;;
45316;SDS011;31053;55.870;37.592;2022-08-19T02:57:48;8.95;;;3.97;;
45316;SDS011;31053;55.870;37.592;2022-08-19T03:00:54;9.90;;;3.53;;
45316;SDS011;31053;55.870;37.592;2022-08-19T03:04:00;7.95;;;3.50;;
45316;SDS011;31053;55.870;37.592;2022-08-19T03:07:08;9.20;;;3.70;;
45316;SDS011;31053;55.870;37.592;2022-08-19T03:10:13;14.73;;;4.30;;
45316;SDS011;31053;55.870;37.592;2022-08-19T03:13:17;9.80;;;4.57;;
45316;SDS011;31053;55.870;37.592;2022-08-19T03:16:22;13.32;;;4.93;;
45316;SDS011;31053;55.870;37.592;2022-08-19T03:22:33;13.88;;;4.43;;
45316;SDS011;31053;55.870;37.592;2022-08-19T03:25:38;12.50;;;4.10;;
45316;SDS011;31053;55.870;37.592;2022-08-19T03:28:45;7.18;;;2.95;;
45316;SDS011;31053;55.870;37.592;2022-08-19T03:31:54;9.57;;;4.13;;
45316;SDS011;31053;55.870;37.592;2022-08-19T03:34:58;10.02;;;4.50;;
45316;SDS011;31053;55.870;37.592;2022-08-19T03:38:03;12.13;;;4.65;;
45316;SDS011;31053;55.870;37.592;2022-08-19T03:41:13;11.07;;;4.60;;
45316;SDS011;31053;55.870;37.592;2022-08-19T03:44:21;10.93;;;4.38;;
45316;SDS011;31053;55.870;37.592;2022-08-19T03:47:26;20.30;;;5.63;;
45316;SDS011;31053;55.870;37.592;2022-08-19T03:50:31;6.63;;;3.28;;
45316;SDS011;31053;55.870;37.592;2022-08-19T03:53:36;11.27;;;3.67;;
45316;SDS011;31053;55.870;37.592;2022-08-19T03:56:41;9.40;;;4.32;;
45316;SDS011;31053;55.870;37.592;2022-08-19T03:59:46;5.30;;;3.25;;
45316;SDS011;31053;55.870;37.592;2022-08-19T04:02:51;10.57;;;3.05;;
45316;SDS011;31053;55.870;37.592;2022-08-19T04:05:55;11.63;;;4.10;;
45316;SDS011;31053;55.870;37.592;2022-08-19T04:09:00;9.32;;;3.53;;
45316;SDS011;31053;55.870;37.592;2022-08-19T04:12:07;10.00;;;3.13;;
45316;SDS011;31053;55.870;37.592;2022-08-19T04:15:12;9.80;;;3.70;;
45316;SDS011;31053;55.870;37.592;2022-08-19T04:18:17;15.65;;;3.65;;
45316;SDS011;31053;55.870;37.592;2022-08-19T04:21:22;7.13;;;3.92;;
45316;SDS011;31053;55.870;37.592;2022-08-19T04:24:29;11.80;;;3.30;;
45316;SDS011;31053;55.870;37.592;2022-08-19T04:27:34;8.25;;;2.40;;
45316;SDS011;31053;55.870;37.592;2022-08-19T04:30:42;12.85;;;2.60;;
45316;SDS011;31053;55.870;37.592;2022-08-19T04:33:48;7.60;;;2.33;;
45316;SDS011;31053;55.870;37.592;2022-08-19T04:36:53;8.27;;;1.98;;
45316;SDS011;31053;55.870;37.592;2022-08-19T04:39:59;3.50;;;2.17;;
45316;SDS011;31053;55.870;37.592;2022-08-19T04:43:22;2.70;;;1.45;;
45316;SDS011;31053;55.870;37.592;2022-08-19T04:46:27;4.25;;;2.17;;
45316;SDS011;31053;55.870;37.592;2022-08-19T04:52:38;7.22;;;2.25;;
45316;SDS011;31053;55.870;37.592;2022-08-19T04:55:46;10.35;;;2.47;;
45316;SDS011;31053;55.870;37.592;2022-08-19T04:58:52;7.25;;;2.90;;
45316;SDS011;31053;55.870;37.592;2022-08-19T05:01:57;5.80;;;2.57;;
45316;SDS011;31053;55.870;37.592;2022-08-19T05:05:01;5.15;;;2.47;;
45316;SDS011;31053;55.870;37.592;2022-08-19T05:08:07;4.40;;;1.80;;
45316;SDS011;31053;55.870;37.592;2022-08-19T05:11:19;6.10;;;2.40;;
45316;SDS011;31053;55.870;37.592;2022-08-19T05:14:29;6.10;;;2.63;;
45316;SDS011;31053;55.870;37.592;2022-08-19T05:17:37;7.40;;;2.20;;
45316;SDS011;31053;55.870;37.592;2022-08-19T05:21:13;3.97;;;2.45;;
45316;SDS011;31053;55.870;37.592;2022-08-19T05:24:40;3.57;;;2.00;;
45316;SDS011;31053;55.870;37.592;2022-08-19T05:27:45;8.02;;;2.67;;
45316;SDS011;31053;55.870;37.592;2022-08-19T05:30:50;4.70;;;2.28;;
45316;SDS011;31053;55.870;37.592;2022-08-19T05:33:54;11.38;;;2.22;;
45316;SDS011;31053;55.870;37.592;2022-08-19T05:37:01;4.38;;;1.65;;
45316;SDS011;31053;55.870;37.592;2022-08-19T05:40:07;8.00;;;2.55;;
45316;SDS011;31053;55.870;37.592;2022-08-19T05:43:15;7.15;;;2.28;;
45316;SDS011;31053;55.870;37.592;2022-08-19T05:46:20;5.72;;;2.40;;
45316;SDS011;31053;55.870;37.592;2022-08-19T05:49:26;8.50;;;2.75;;
45316;SDS011;31053;55.870;37.592;2022-08-19T05:52:32;4.50;;;1.90;;
45316;SDS011;31053;55.870;37.592;2022-08-19T05:55:42;5.55;;;2.35;;
45316;SDS011;31053;55.870;37.592;2022-08-19T05:58:54;7.25;;;3.13;;
45316;SDS011;31053;55.870;37.592;2022-08-19T06:02:01;7.60;;;2.42;;
45316;SDS011;31053;55.870;37.592;2022-08-19T06:05:10;10.02;;;2.70;;
45316;SDS011;31053;55.870;37.592;2022-08-19T06:08:17;10.05;;;3.05;;
45316;SDS011;31053;55.870;37.592;2022-08-19T06:11:33;9.77;;;2.70;;
45316;SDS011;31053;55.870;37.592;2022-08-19T06:14:54;6.60;;;2.70;;
45316;SDS011;31053;55.870;37.592;2022-08-19T06:18:00;9.98;;;2.65;;
45316;SDS011;31053;55.870;37.592;2022-08-19T06:21:09;12.80;;;2.83;;
45316;SDS011;31053;55.870;37.592;2022-08-19T06:24:19;9.60;;;2.47;;
45316;SDS011;31053;55.870;37.592;2022-08-19T06:27:30;10.82;;;2.45;;
45316;SDS011;31053;55.870;37.592;2022-08-19T06:30:36;9.88;;;2.58;;
45316;SDS011;31053;55.870;37.592;2022-08-19T06:33:43;10.30;;;2.95;;
45316;SDS011;31053;55.870;37.592;2022-08-19T06:37:00;6.90;;;2.67;;
45316;SDS011;31053;55.870;37.592;2022-08-19T06:40:07;5.88;;;2.03;;
45316;SDS011;31053;55.870;37.592;2022-08-19T06:43:42;18.45;;;2.78;;
45316;SDS011;31053;55.870;37.592;2022-08-19T06:47:11;14.07;;;2.67;;
45316;SDS011;31053;55.870;37.592;2022-08-19T06:51:06;8.85;;;2.67;;
45316;SDS011;31053;55.870;37.592;2022-08-19T06:54:11;9.43;;;3.38;;
45316;SDS011;31053;55.870;37.592;2022-08-19T06:57:17;5.60;;;2.45;;
45316;SDS011;31053;55.870;37.592;2022-08-19T07:00:21;7.40;;;2.67;;
45316;SDS011;31053;55.870;37.592;2022-08-19T07:03:28;5.95;;;4.35;;
45316;SDS011;31053;55.870;37.592;2022-08-19T07:06:36;6.57;;;2.85;;
45316;SDS011;31053;55.870;37.592;2022-08-19T07:09:42;15.88;;;6.05;;
45316;SDS011;31053;55.870;37.592;2022-08-19T07:12:48;9.52;;;4.03;;
45316;SDS011;31053;55.870;37.592;2022-08-19T07:16:02;11.05;;;4.43;;
45316;SDS011;31053;55.870;37.592;2022-08-19T07:19:13;8.95;;;3.03;;
45316;SDS011;31053;55.870;37.592;2022-08-19T07:30:42;10.73;;;3.97;;
45316;SDS011;31053;55.870;37.592;2022-08-19T07:33:47;13.10;;;3.30;;
45316;SDS011;31053;55.870;37.592;2022-08-19T07:36:54;7.85;;;1.83;;
45316;SDS011;31053;55.870;37.592;2022-08-19T07:39:58;7.10;;;2.22;;
45316;SDS011;31053;55.870;37.592;2022-08-19T07:43:03;13.32;;;6.60;;
45316;SDS011;31053;55.870;37.592;2022-08-19T07:46:08;3.08;;;2.10;;
45316;SDS011;31053;55.870;37.592;2022-08-19T07:49:14;7.30;;;2.47;;
45316;SDS011;31053;55.870;37.592;2022-08-19T07:52:23;7.60;;;2.03;;
45316;SDS011;31053;55.870;37.592;2022-08-19T07:55:29;5.38;;;1.92;;
45316;SDS011;31053;55.870;37.592;2022-08-19T07:58:36;10.52;;;2.60;;
45316;SDS011;31053;55.870;37.592;2022-08-19T08:01:44;3.70;;;1.77;;
45316;SDS011;31053;55.870;37.592;2022-08-19T08:04:51;11.68;;;4.22;;
45316;SDS011;31053;55.870;37.592;2022-08-19T08:08:14;6.90;;;2.10;;
45316;SDS011;31053;55.870;37.592;2022-08-19T08:11:39;7.43;;;2.25;;
45316;SDS011;31053;55.870;37.592;2022-08-19T08:14:55;8.35;;;2.47;;
45316;SDS011;31053;55.870;37.592;2022-08-19T08:18:01;7.03;;;1.88;;
45316;SDS011;31053;55.870;37.592;2022-08-19T08:21:06;6.35;;;2.13;;
45316;SDS011;31053;55.870;37.592;2022-08-19T08:24:11;4.15;;;1.58;;
45316;SDS011;31053;55.870;37.592;2022-08-19T08:27:16;6.10;;;1.90;;
45316;SDS011;31053;55.870;37.592;2022-08-19T08:30:23;10.02;;;2.28;;
45316;SDS011;31053;55.870;37.592;2022-08-19T08:33:29;5.78;;;1.45;;
45316;SDS011;31053;55.870;37.592;2022-08-19T08:36:38;8.88;;;2.40;;
45316;SDS011;31053;55.870;37.592;2022-08-19T08:39:48;6.60;;;2.65;;
45316;SDS011;31053;55.870;37.592;2022-08-19T08:42:57;4.05;;;2.38;;
45316;SDS011;31053;55.870;37.592;2022-08-19T08:50:50;2.70;;;1.75;;
45316;SDS011;31053;55.870;37.592;2022-08-19T08:53:57;9.65;;;2.58;;
45316;SDS011;31053;55.870;37.592;2022-08-19T08:57:04;6.97;;;2.20;;
45316;SDS011;31053;55.870;37.592;2022-08-19T09:00:20;5.85;;;1.90;;
45316;SDS011;31053;55.870;37.592;2022-08-19T09:03:28;4.65;;;2.10;;
45316;SDS011;31053;55.870;37.592;2022-08-19T09:06:38;4.57;;;2.17;;
45316;SDS011;31053;55.870;37.592;2022-08-19T09:09:49;6.40;;;2.05;;
45316;SDS011;31053;55.870;37.592;2022-08-19T09:16:13;5.63;;;2.53;;
45316;SDS011;31053;55.870;37.592;2022-08-19T09:19:25;8.45;;;2.40;;
45316;SDS011;31053;55.870;37.592;2022-08-19T09:22:33;5.72;;;1.90;;
45316;SDS011;31053;55.870;37.592;2022-08-19T09:25:41;7.07;;;2.47;;
45316;SDS011;31053;55.870;37.592;2022-08-19T09:28:48;7.43;;;2.13;;
45316;SDS011;31053;55.870;37.592;2022-08-19T09:51:40;8.95;;;2.63;;
45316;SDS011;31053;55.870;37.592;2022-08-19T10:37:53;8.57;;;3.17;;
45316;SDS011;31053;55.870;37.592;2022-08-19T10:41:08;3.13;;;2.65;;
45316;SDS011;31053;55.870;37.592;2022-08-19T10:44:20;9.25;;;3.22;;
45316;SDS011;31053;55.870;37.592;2022-08-19T10:47:45;5.40;;;3.25;;
45316;SDS011;31053;55.870;37.592;2022-08-19T10:51:52;5.85;;;2.67;;
45316;SDS011;31053;55.870;37.592;2022-08-19T10:56:54;7.20;;;2.45;;
45316;SDS011;31053;55.870;37.592;2022-08-19T11:01:59;9.32;;;2.70;;
45316;SDS011;31053;55.870;37.592;2022-08-19T11:05:05;6.03;;;2.33;;
45316;SDS011;31053;55.870;37.592;2022-08-19T11:09:00;7.25;;;2.25;;
45316;SDS011;31053;55.870;37.592;2022-08-19T11:12:28;7.43;;;2.65;;
45316;SDS011;31053;55.870;37.592;2022-08-19T11:16:12;8.00;;;2.20;;
45316;SDS011;31053;55.870;37.592;2022-08-19T11:20:06;8.88;;;2.55;;
45316;SDS011;31053;55.870;37.592;2022-08-19T11:27:32;10.43;;;2.60;;
45316;SDS011;31053;55.870;37.592;2022-08-19T11:35:18;8.95;;;2.42;;
45316;SDS011;31053;55.870;37.592;2022-08-19T11:39:22;6.70;;;2.08;;
45316;SDS011;31053;55.870;37.592;2022-08-19T11:43:31;3.47;;;1.95;;
45316;SDS011;31053;55.870;37.592;2022-08-19T11:46:50;5.68;;;1.88;;
45316;SDS011;31053;55.870;37.592;2022-08-19T11:50:19;6.18;;;2.05;;
45316;SDS011;31053;55.870;37.592;2022-08-19T11:54:41;4.78;;;2.03;;
45316;SDS011;31053;55.870;37.592;2022-08-19T11:59:34;9.52;;;3.53;;
45316;SDS011;31053;55.870;37.592;2022-08-19T12:02:49;2.53;;;1.52;;
45316;SDS011;31053;55.870;37.592;2022-08-19T12:06:04;4.35;;;1.27;;
45316;SDS011;31053;55.870;37.592;2022-08-19T12:13:08;6.50;;;1.75;;
45316;SDS011;31053;55.870;37.592;2022-08-19T12:20:34;2.30;;;1.35;;
45316;SDS011;31053;55.870;37.592;2022-08-19T12:24:25;2.75;;;1.70;;
45316;SDS011;31053;55.870;37.592;2022-08-19T12:28:22;12.00;;;1.95;;
45316;SDS011;31053;55.870;37.592;2022-08-19T12:31:33;4.72;;;1.50;;
45316;SDS011;31053;55.870;37.592;2022-08-19T12:34:40;6.43;;;0.93;;
45316;SDS011;31053;55.870;37.592;2022-08-19T12:38:20;3.78;;;1.67;;
45316;SDS011;31053;55.870;37.592;2022-08-19T12:41:36;2.63;;;1.52;;
45316;SDS011;31053;55.870;37.592;2022-08-19T12:45:01;6.88;;;1.85;;
45316;SDS011;31053;55.870;37.592;2022-08-19T12:49:01;2.65;;;1.60;;
45316;SDS011;31053;55.870;37.592;2022-08-19T12:52:09;5.95;;;1.83;;
45316;SDS011;31053;55.870;37.592;2022-08-19T12:56:05;6.95;;;2.90;;
45316;SDS011;31053;55.870;37.592;2022-08-19T13:03:26;5.60;;;2.70;;
45316;SDS011;31053;55.870;37.592;2022-08-19T13:06:33;6.90;;;2.47;;
45316;SDS011;31053;55.870;37.592;2022-08-19T13:09:44;8.23;;;2.90;;
45316;SDS011;31053;55.870;37.592;2022-08-19T13:12:49;7.25;;;2.55;;
45316;SDS011;31053;55.870;37.592;2022-08-19T13:16:14;4.55;;;2.20;;
45316;SDS011;31053;55.870;37.592;2022-08-19T13:19:47;3.28;;;1.77;;
45316;SDS011;31053;55.870;37.592;2022-08-19T13:23:02;4.28;;;1.70;;
45316;SDS011;31053;55.870;37.592;2022-08-19T13:26:14;5.00;;;1.33;;
45316;SDS011;31053;55.870;37.592;2022-08-19T13:29:27;4.20;;;1.83;;
45316;SDS011;31053;55.870;37.592;2022-08-19T13:33:03;6.03;;;2.25;;
45316;SDS011;31053;55.870;37.592;2022-08-19T13:36:32;11.30;;;2.17;;
45316;SDS011;31053;55.870;37.592;2022-08-19T13:40:08;6.38;;;2.15;;
45316;SDS011;31053;55.870;37.592;2022-08-19T13:43:54;7.07;;;2.97;;
45316;SDS011;31053;55.870;37.592;2022-08-19T13:47:15;7.65;;;1.73;;
45316;SDS011;31053;55.870;37.592;2022-08-19T13:55:25;8.88;;;2.33;;
45316;SDS011;31053;55.870;37.592;2022-08-19T13:58:42;5.35;;;2.35;;
45316;SDS011;31053;55.870;37.592;2022-08-19T14:02:22;8.30;;;2.10;;
45316;SDS011;31053;55.870;37.592;2022-08-19T14:05:28;11.18;;;2.40;;
45316;SDS011;31053;55.870;37.592;2022-08-19T14:09:31;5.55;;;2.10;;
45316;SDS011;31053;55.870;37.592;2022-08-19T14:12:40;10.73;;;2.72;;
45316;SDS011;31053;55.870;37.592;2022-08-19T14:16:09;5.00;;;2.25;;
45316;SDS011;31053;55.870;37.592;2022-08-19T14:20:03;5.28;;;2.58;;
45316;SDS011;31053;55.870;37.592;2022-08-19T14:23:14;7.53;;;2.22;;
45316;SDS011;31053;55.870;37.592;2022-08-19T14:26:30;6.20;;;3.03;;
45316;SDS011;31053;55.870;37.592;2022-08-19T14:29:47;7.35;;;2.15;;
45316;SDS011;31053;55.870;37.592;2022-08-19T14:33:45;10.13;;;2.03;;
45316;SDS011;31053;55.870;37.592;2022-08-19T14:36:56;5.50;;;2.25;;
45316;SDS011;31053;55.870;37.592;2022-08-19T14:40:32;5.75;;;2.83;;
45316;SDS011;31053;55.870;37.592;2022-08-19T14:44:34;7.97;;;2.72;;
45316;SDS011;31053;55.870;37.592;2022-08-19T14:48:00;2.10;;;1.63;;
45316;SDS011;31053;55.870;37.592;2022-08-19T14:51:11;8.52;;;2.83;;
45316;SDS011;31053;55.870;37.592;2022-08-19T14:55:41;2.90;;;1.77;;
45316;SDS011;31053;55.870;37.592;2022-08-19T14:59:43;6.78;;;2.20;;
45316;SDS011;31053;55.870;37.592;2022-08-19T15:03:21;12.00;;;2.55;;
45316;SDS011;31053;55.870;37.592;2022-08-19T15:07:10;10.52;;;2.53;;
45316;SDS011;31053;55.870;37.592;2022-08-19T15:14:37;7.57;;;1.90;;
45316;SDS011;31053;55.870;37.592;2022-08-19T15:18:28;6.28;;;2.67;;
45316;SDS011;31053;55.870;37.592;2022-08-19T15:29:43;23.75;;;3.72;;
45316;SDS011;31053;55.870;37.592;2022-08-19T15:33:35;7.13;;;3.10;;
45316;SDS011;31053;55.870;37.592;2022-08-19T15:37:38;8.65;;;2.40;;
45316;SDS011;31053;55.870;37.592;2022-08-19T15:40:56;9.75;;;3.20;;
45316;SDS011;31053;55.870;37.592;2022-08-19T15:44:27;9.90;;;2.45;;
45316;SDS011;31053;55.870;37.592;2022-08-19T15:47:32;6.25;;;2.90;;
45316;SDS011;31053;55.870;37.592;2022-08-19T15:50:40;7.70;;;2.85;;
45316;SDS011;31053;55.870;37.592;2022-08-19T15:53:45;7.93;;;2.72;;
45316;SDS011;31053;55.870;37.592;2022-08-19T15:56:50;5.93;;;2.35;;
45316;SDS011;31053;55.870;37.592;2022-08-19T16:00:18;22.88;;;2.50;;
45316;SDS011;31053;55.870;37.592;2022-08-19T16:03:47;17.58;;;4.72;;
45316;SDS011;31053;55.870;37.592;2022-08-19T16:07:11;8.82;;;4.03;;
45316;SDS011;31053;55.870;37.592;2022-08-19T16:10:16;14.63;;;3.92;;
45316;SDS011;31053;55.870;37.592;2022-08-19T16:13:53;4.75;;;3.28;;
45316;SDS011;31053;55.870;37.592;2022-08-19T16:16:58;11.00;;;4.10;;
45316;SDS011;31053;55.870;37.592;2022-08-19T16:20:03;10.27;;;3.33;;
45316;SDS011;31053;55.870;37.592;2022-08-19T16:23:10;6.97;;;2.92;;
45316;SDS011;31053;55.870;37.592;2022-08-19T16:26:15;9.20;;;3.50;;
45316;SDS011;31053;55.870;37.592;2022-08-19T16:29:22;8.45;;;2.63;;
45316;SDS011;31053;55.870;37.592;2022-08-19T16:32:27;9.65;;;2.35;;
45316;SDS011;31053;55.870;37.592;2022-08-19T16:35:31;6.53;;;2.15;;
45316;SDS011;31053;55.870;37.592;2022-08-19T16:38:36;7.18;;;3.42;;
45316;SDS011;31053;55.870;37.592;2022-08-19T16:41:41;10.82;;;3.10;;
45316;SDS011;31053;55.870;37.592;2022-08-19T16:44:47;9.55;;;3.85;;
45316;SDS011;31053;55.870;37.592;2022-08-19T16:47:51;8.25;;;5.15;;
45316;SDS011;31053;55.870;37.592;2022-08-19T16:50:56;7.95;;;4.43;;
45316;SDS011;31053;55.870;37.592;2022-08-19T16:54:01;11.25;;;4.72;;
45316;SDS011;31053;55.870;37.592;2022-08-19T16:57:06;14.23;;;2.88;;
45316;SDS011;31053;55.870;37.592;2022-08-19T17:00:11;8.00;;;3.65;;
45316;SDS011;31053;55.870;37.592;2022-08-19T17:03:17;9.82;;;3.55;;
45316;SDS011;31053;55.870;37.592;2022-08-19T17:06:24;6.53;;;2.83;;
45316;SDS011;31053;55.870;37.592;2022-08-19T17:09:30;7.40;;;1.98;;
45316;SDS011;31053;55.870;37.592;2022-08-19T17:12:35;8.23;;;3.75;;
45316;SDS011;31053;55.870;37.592;2022-08-19T17:15:40;10.05;;;3.30;;
45316;SDS011;31053;55.870;37.592;2022-08-19T17:18:45;6.57;;;2.45;;
45316;SDS011;31053;55.870;37.592;2022-08-19T17:21:50;11.32;;;3.33;;
45316;SDS011;31053;55.870;37.592;2022-08-19T17:24:55;4.57;;;2.83;;
45316;SDS011;31053;55.870;37.592;2022-08-19T17:28:11;10.02;;;4.00;;
45316;SDS011;31053;55.870;37.592;2022-08-19T17:31:22;4.97;;;2.15;;
45316;SDS011;31053;55.870;37.592;2022-08-19T17:34:28;7.80;;;2.40;;
45316;SDS011;31053;55.870;37.592;2022-08-19T17:37:32;10.93;;;2.30;;
45316;SDS011;31053;55.870;37.592;2022-08-19T17:40:39;12.43;;;4.10;;
45316;SDS011;31053;55.870;37.592;2022-08-19T17:43:47;9.45;;;3.33;;
45316;SDS011;31053;55.870;37.592;2022-08-19T17:46:52;6.57;;;3.55;;
45316;SDS011;31053;55.870;37.592;2022-08-19T17:49:57;7.13;;;2.53;;
45316;SDS011;31053;55.870;37.592;2022-08-19T17:53:02;10.40;;;2.60;;
45316;SDS011;31053;55.870;37.592;2022-08-19T17:56:08;6.93;;;3.13;;
45316;SDS011;31053;55.870;37.592;2022-08-19T17:59:13;4.72;;;2.22;;
45316;SDS011;31053;55.870;37.592;2022-08-19T18:02:18;7.05;;;2.63;;
45316;SDS011;31053;55.870;37.592;2022-08-19T18:05:24;9.00;;;2.70;;
45316;SDS011;31053;55.870;37.592;2022-08-19T18:08:34;8.73;;;3.33;;
45316;SDS011;31053;55.870;37.592;2022-08-19T18:11:44;5.38;;;2.75;;
45316;SDS011;31053;55.870;37.592;2022-08-19T18:14:49;7.97;;;2.58;;
45316;SDS011;31053;55.870;37.592;2022-08-19T18:17:54;13.02;;;2.55;;
45316;SDS011;31053;55.870;37.592;2022-08-19T18:20:58;9.15;;;3.10;;
45316;SDS011;31053;55.870;37.592;2022-08-19T18:24:04;10.10;;;2.73;;
45316;SDS011;31053;55.870;37.592;2022-08-19T18:27:09;15.38;;;3.33;;
45316;SDS011;31053;55.870;37.592;2022-08-19T18:30:14;9.27;;;1.80;;
45316;SDS011;31053;55.870;37.592;2022-08-19T18:33:18;9.43;;;2.80;;
45316;SDS011;31053;55.870;37.592;2022-08-19T18:36:23;10.07;;;2.55;;
45316;SDS011;31053;55.870;37.592;2022-08-19T18:39:28;13.73;;;2.65;;
45316;SDS011;31053;55.870;37.592;2022-08-19T18:42:51;8.48;;;2.53;;
45316;SDS011;31053;55.870;37.592;2022-08-19T18:46:14;6.95;;;2.25;;
45316;SDS011;31053;55.870;37.592;2022-08-19T18:49:37;13.77;;;3.10;;
45316;SDS011;31053;55.870;37.592;2022-08-19T18:52:42;16.52;;;3.22;;
45316;SDS011;31053;55.870;37.592;2022-08-19T18:55:47;14.50;;;2.83;;
45316;SDS011;31053;55.870;37.592;2022-08-19T18:58:54;15.52;;;2.75;;
45316;SDS011;31053;55.870;37.592;2022-08-19T19:01:59;7.53;;;2.38;;
45316;SDS011;31053;55.870;37.592;2022-08-19T19:05:05;14.37;;;2.70;;
45316;SDS011;31053;55.870;37.592;2022-08-19T19:08:10;6.65;;;2.30;;
45316;SDS011;31053;55.870;37.592;2022-08-19T19:11:22;11.02;;;2.40;;
45316;SDS011;31053;55.870;37.592;2022-08-19T19:14:30;12.98;;;2.55;;
45316;SDS011;31053;55.870;37.592;2022-08-19T19:17:37;10.45;;;2.70;;
45316;SDS011;31053;55.870;37.592;2022-08-19T19:20:42;10.10;;;2.25;;
45316;SDS011;31053;55.870;37.592;2022-08-19T19:23:47;6.20;;;1.80;;
45316;SDS011;31053;55.870;37.592;2022-08-19T19:26:52;9.10;;;2.60;;
45316;SDS011;31053;55.870;37.592;2022-08-19T19:29:58;7.22;;;2.28;;
45316;SDS011;31053;55.870;37.592;2022-08-19T19:33:03;6.82;;;2.30;;
45316;SDS011;31053;55.870;37.592;2022-08-19T19:36:07;9.88;;;2.35;;
45316;SDS011;31053;55.870;37.592;2022-08-19T19:39:12;3.33;;;1.98;;
45316;SDS011;31053;55.870;37.592;2022-08-19T19:42:18;5.50;;;1.98;;
45316;SDS011;31053;55.870;37.592;2022-08-19T19:45:24;3.53;;;1.75;;
45316;SDS011;31053;55.870;37.592;2022-08-19T19:48:29;6.90;;;1.83;;
45316;SDS011;31053;55.870;37.592;2022-08-19T19:51:34;7.72;;;2.08;;
45316;SDS011;31053;55.870;37.592;2022-08-19T19:54:42;5.28;;;1.77;;
45316;SDS011;31053;55.870;37.592;2022-08-19T19:57:47;5.63;;;2.00;;
45316;SDS011;31053;55.870;37.592;2022-08-19T20:00:51;5.38;;;1.80;;
45316;SDS011;31053;55.870;37.592;2022-08-19T20:03:56;8.75;;;2.65;;
45316;SDS011;31053;55.870;37.592;2022-08-19T20:07:04;5.45;;;2.15;;
45316;SDS011;31053;55.870;37.592;2022-08-19T20:10:08;7.55;;;2.97;;
45316;SDS011;31053;55.870;37.592;2022-08-19T20:13:14;10.80;;;2.30;;
45316;SDS011;31053;55.870;37.592;2022-08-19T20:16:18;9.95;;;2.75;;
45316;SDS011;31053;55.870;37.592;2022-08-19T20:19:28;11.10;;;2.47;;
45316;SDS011;31053;55.870;37.592;2022-08-19T20:22:40;8.35;;;2.03;;
45316;SDS011;31053;55.870;37.592;2022-08-19T20:25:45;6.82;;;1.90;;
45316;SDS011;31053;55.870;37.592;2022-08-19T20:28:52;11.20;;;2.20;;
45316;SDS011;31053;55.870;37.592;2022-08-19T20:31:57;10.70;;;2.90;;
45316;SDS011;31053;55.870;37.592;2022-08-19T20:35:01;6.13;;;1.92;;
45316;SDS011;31053;55.870;37.592;2022-08-19T20:38:07;9.10;;;2.17;;
45316;SDS011;31053;55.870;37.592;2022-08-19T20:41:12;9.85;;;2.65;;
45316;SDS011;31053;55.870;37.592;2022-08-19T20:44:18;4.07;;;2.00;;
45316;SDS011;31053;55.870;37.592;2022-08-19T20:47:22;9.13;;;2.05;;
45316;SDS011;31053;55.870;37.592;2022-08-19T20:50:27;10.25;;;2.58;;
45316;SDS011;31053;55.870;37.592;2022-08-19T20:53:32;9.60;;;2.30;;
45316;SDS011;31053;55.870;37.592;2022-08-19T20:56:37;6.43;;;2.92;;
45316;SDS011;31053;55.870;37.592;2022-08-19T20:59:41;8.07;;;2.80;;
45316;SDS011;31053;55.870;37.592;2022-08-19T21:02:46;12.07;;;2.65;;
45316;SDS011;31053;55.870;37.592;2022-08-19T21:05:50;9.77;;;2.90;;
45316;SDS011;31053;55.870;37.592;2022-08-19T21:08:56;6.25;;;2.83;;
45316;SDS011;31053;55.870;37.592;2022-08-19T21:12:04;9.07;;;3.13;;